sensor_id;sensor_type;location;lat;lon;timestamp;P1;durP1;ratioP1;P2;durP2;ratioP2
54909;SDS011;63189;51.240;9.964;2022-12-11T00:02:00;23.98;;;14.13;;
54909;SDS011;63189;51.240;9.964;2022-12-11T00:04:25;24.60;;;14.63;;
54909;SDS011;63189;51.240;9.964;2022-12-11T00:06:51;25.95;;;14.95;;
54909;SDS011;63189;51.240;9.964;2022-12-11T00:09:17;22.60;;;13.60;;
54909;SDS011;63189;51.240;9.964;2022-12-11T00:11:44;26.65;;;15.13;;
54909;SDS011;63189;51.240;9.964;2022-12-11T00:14:10;26.98;;;15.43;;
54909;SDS011;63189;51.240;9.964;2022-12-11T00:16:35;26.02;;;14.68;;
54909;SDS011;63189;51.240;9.964;2022-12-11T00:19:00;21.90;;;13.35;;
54909;SDS011;63189;51.240;9.964;2022-12-11T00:21:31;25.95;;;14.93;;
54909;SDS011;63189;51.240;9.964;2022-12-11T00:24:00;26.27;;;14.80;;
54909;SDS011;63189;51.240;9.964;2022-12-11T00:26:25;24.10;;;13.82;;
54909;SDS011;63189;51.240;9.964;2022-12-11T00:28:54;20.10;;;12.32;;
54909;SDS011;63189;51.240;9.964;2022-12-11T00:31:21;21.33;;;13.07;;
54909;SDS011;63189;51.240;9.964;2022-12-11T00:33:48;20.77;;;12.52;;
54909;SDS011;63189;51.240;9.964;2022-12-11T00:36:18;22.23;;;13.80;;
54909;SDS011;63189;51.240;9.964;2022-12-11T00:38:51;22.20;;;13.75;;
54909;SDS011;63189;51.240;9.964;2022-12-11T00:41:17;22.83;;;13.00;;
54909;SDS011;63189;51.240;9.964;2022-12-11T00:43:43;22.48;;;13.07;;
54909;SDS011;63189;51.240;9.964;2022-12-11T00:46:09;20.42;;;12.45;;
54909;SDS011;63189;51.240;9.964;2022-12-11T00:48:34;22.60;;;13.07;;
54909;SDS011;63189;51.240;9.964;2022-12-11T00:51:01;23.02;;;13.23;;
54909;SDS011;63189;51.240;9.964;2022-12-11T00:53:26;21.45;;;12.60;;
54909;SDS011;63189;51.240;9.964;2022-12-11T00:55:53;19.73;;;11.57;;
54909;SDS011;63189;51.240;9.964;2022-12-11T00:58:18;18.23;;;11.68;;
54909;SDS011;63189;51.240;9.964;2022-12-11T01:00:44;19.48;;;11.98;;
54909;SDS011;63189;51.240;9.964;2022-12-11T01:03:13;18.77;;;10.75;;
54909;SDS011;63189;51.240;9.964;2022-12-11T01:05:39;21.40;;;12.00;;
54909;SDS011;63189;51.240;9.964;2022-12-11T01:08:04;19.35;;;11.82;;
54909;SDS011;63189;51.240;9.964;2022-12-11T01:10:30;18.77;;;11.38;;
54909;SDS011;63189;51.240;9.964;2022-12-11T01:13:03;22.45;;;12.75;;
54909;SDS011;63189;51.240;9.964;2022-12-11T01:15:32;22.20;;;13.07;;
54909;SDS011;63189;51.240;9.964;2022-12-11T01:17:59;21.23;;;12.57;;
54909;SDS011;63189;51.240;9.964;2022-12-11T01:20:25;22.02;;;13.30;;
54909;SDS011;63189;51.240;9.964;2022-12-11T01:22:52;20.50;;;11.90;;
54909;SDS011;63189;51.240;9.964;2022-12-11T01:25:18;21.60;;;12.32;;
54909;SDS011;63189;51.240;9.964;2022-12-11T01:27:44;22.48;;;13.55;;
54909;SDS011;63189;51.240;9.964;2022-12-11T01:30:09;21.15;;;12.52;;
54909;SDS011;63189;51.240;9.964;2022-12-11T01:32:35;22.35;;;13.82;;
54909;SDS011;63189;51.240;9.964;2022-12-11T01:35:04;25.02;;;14.57;;
54909;SDS011;63189;51.240;9.964;2022-12-11T01:37:31;24.75;;;15.45;;
54909;SDS011;63189;51.240;9.964;2022-12-11T01:39:58;20.40;;;12.55;;
54909;SDS011;63189;51.240;9.964;2022-12-11T01:42:24;20.45;;;11.80;;
54909;SDS011;63189;51.240;9.964;2022-12-11T01:47:15;20.63;;;13.38;;
54909;SDS011;63189;51.240;9.964;2022-12-11T01:49:41;21.38;;;12.85;;
54909;SDS011;63189;51.240;9.964;2022-12-11T01:52:11;23.77;;;14.38;;
54909;SDS011;63189;51.240;9.964;2022-12-11T01:54:45;20.88;;;11.95;;
54909;SDS011;63189;51.240;9.964;2022-12-11T01:57:12;18.05;;;11.23;;
54909;SDS011;63189;51.240;9.964;2022-12-11T01:59:39;21.23;;;12.52;;
54909;SDS011;63189;51.240;9.964;2022-12-11T02:02:19;17.85;;;10.88;;
54909;SDS011;63189;51.240;9.964;2022-12-11T02:04:48;17.90;;;11.63;;
54909;SDS011;63189;51.240;9.964;2022-12-11T02:07:13;22.10;;;12.70;;
54909;SDS011;63189;51.240;9.964;2022-12-11T02:09:40;19.98;;;11.32;;
54909;SDS011;63189;51.240;9.964;2022-12-11T02:15:23;19.25;;;11.38;;
54909;SDS011;63189;51.240;9.964;2022-12-11T02:17:55;19.58;;;11.40;;
54909;SDS011;63189;51.240;9.964;2022-12-11T02:23:03;18.80;;;11.50;;
54909;SDS011;63189;51.240;9.964;2022-12-11T02:31:12;18.50;;;10.80;;
54909;SDS011;63189;51.240;9.964;2022-12-11T02:33:49;16.70;;;9.73;;
54909;SDS011;63189;51.240;9.964;2022-12-11T02:36:20;16.42;;;11.20;;
54909;SDS011;63189;51.240;9.964;2022-12-11T02:38:49;20.05;;;11.23;;
54909;SDS011;63189;51.240;9.964;2022-12-11T02:41:18;18.20;;;10.30;;
54909;SDS011;63189;51.240;9.964;2022-12-11T02:43:45;16.80;;;10.10;;
54909;SDS011;63189;51.240;9.964;2022-12-11T02:46:13;13.68;;;8.80;;
54909;SDS011;63189;51.240;9.964;2022-12-11T02:48:41;16.88;;;9.77;;
54909;SDS011;63189;51.240;9.964;2022-12-11T02:51:08;15.10;;;8.50;;
54909;SDS011;63189;51.240;9.964;2022-12-11T02:53:36;18.02;;;10.25;;
54909;SDS011;63189;51.240;9.964;2022-12-11T02:56:09;17.13;;;10.50;;
54909;SDS011;63189;51.240;9.964;2022-12-11T02:58:38;14.25;;;8.48;;
54909;SDS011;63189;51.240;9.964;2022-12-11T03:01:09;14.82;;;9.63;;
54909;SDS011;63189;51.240;9.964;2022-12-11T03:03:35;17.55;;;10.35;;
54909;SDS011;63189;51.240;9.964;2022-12-11T03:06:00;14.70;;;9.13;;
54909;SDS011;63189;51.240;9.964;2022-12-11T03:08:26;13.85;;;9.05;;
54909;SDS011;63189;51.240;9.964;2022-12-11T03:10:51;16.40;;;9.75;;
54909;SDS011;63189;51.240;9.964;2022-12-11T03:13:18;17.15;;;10.43;;
54909;SDS011;63189;51.240;9.964;2022-12-11T03:19:10;13.85;;;8.52;;
54909;SDS011;63189;51.240;9.964;2022-12-11T03:21:57;17.35;;;9.93;;
54909;SDS011;63189;51.240;9.964;2022-12-11T03:26:58;16.15;;;9.75;;
54909;SDS011;63189;51.240;9.964;2022-12-11T03:29:33;16.33;;;9.65;;
54909;SDS011;63189;51.240;9.964;2022-12-11T03:32:08;20.50;;;11.23;;
54909;SDS011;63189;51.240;9.964;2022-12-11T03:34:45;16.15;;;10.80;;
54909;SDS011;63189;51.240;9.964;2022-12-11T03:37:18;16.67;;;10.88;;
54909;SDS011;63189;51.240;9.964;2022-12-11T03:39:49;18.30;;;10.95;;
54909;SDS011;63189;51.240;9.964;2022-12-11T03:42:18;19.48;;;11.65;;
54909;SDS011;63189;51.240;9.964;2022-12-11T03:44:47;18.63;;;10.60;;
54909;SDS011;63189;51.240;9.964;2022-12-11T03:47:15;18.65;;;11.20;;
54909;SDS011;63189;51.240;9.964;2022-12-11T03:49:42;18.35;;;10.95;;
54909;SDS011;63189;51.240;9.964;2022-12-11T03:52:10;16.73;;;10.05;;
54909;SDS011;63189;51.240;9.964;2022-12-11T03:54:39;17.90;;;10.05;;
54909;SDS011;63189;51.240;9.964;2022-12-11T03:57:05;18.90;;;10.98;;
54909;SDS011;63189;51.240;9.964;2022-12-11T03:59:33;21.55;;;11.98;;
54909;SDS011;63189;51.240;9.964;2022-12-11T04:01:58;19.17;;;10.35;;
54909;SDS011;63189;51.240;9.964;2022-12-11T04:04:24;13.55;;;8.02;;
54909;SDS011;63189;51.240;9.964;2022-12-11T04:06:49;18.23;;;10.23;;
54909;SDS011;63189;51.240;9.964;2022-12-11T04:09:14;16.48;;;10.18;;
54909;SDS011;63189;51.240;9.964;2022-12-11T04:11:40;17.13;;;10.35;;
54909;SDS011;63189;51.240;9.964;2022-12-11T04:14:08;18.30;;;11.60;;
54909;SDS011;63189;51.240;9.964;2022-12-11T04:16:54;18.15;;;10.57;;
54909;SDS011;63189;51.240;9.964;2022-12-11T04:19:21;20.42;;;12.27;;
54909;SDS011;63189;51.240;9.964;2022-12-11T04:22:06;19.88;;;12.38;;
54909;SDS011;63189;51.240;9.964;2022-12-11T04:24:50;17.23;;;10.60;;
54909;SDS011;63189;51.240;9.964;2022-12-11T04:27:15;20.38;;;11.95;;
54909;SDS011;63189;51.240;9.964;2022-12-11T04:30:01;16.45;;;10.00;;
54909;SDS011;63189;51.240;9.964;2022-12-11T04:32:29;18.17;;;11.25;;
54909;SDS011;63189;51.240;9.964;2022-12-11T04:34:55;17.65;;;10.75;;
54909;SDS011;63189;51.240;9.964;2022-12-11T04:37:20;17.45;;;11.15;;
54909;SDS011;63189;51.240;9.964;2022-12-11T04:39:45;16.23;;;10.00;;
54909;SDS011;63189;51.240;9.964;2022-12-11T04:42:11;17.27;;;10.70;;
54909;SDS011;63189;51.240;9.964;2022-12-11T04:44:36;16.50;;;10.23;;
54909;SDS011;63189;51.240;9.964;2022-12-11T04:47:01;13.85;;;8.48;;
54909;SDS011;63189;51.240;9.964;2022-12-11T04:49:27;16.05;;;10.85;;
54909;SDS011;63189;51.240;9.964;2022-12-11T04:51:52;20.05;;;12.10;;
54909;SDS011;63189;51.240;9.964;2022-12-11T04:54:17;19.52;;;11.02;;
54909;SDS011;63189;51.240;9.964;2022-12-11T04:56:43;16.20;;;9.85;;
54909;SDS011;63189;51.240;9.964;2022-12-11T04:59:08;16.25;;;9.95;;
54909;SDS011;63189;51.240;9.964;2022-12-11T05:01:33;18.00;;;10.48;;
54909;SDS011;63189;51.240;9.964;2022-12-11T05:03:59;16.88;;;10.85;;
54909;SDS011;63189;51.240;9.964;2022-12-11T05:06:24;18.08;;;11.07;;
54909;SDS011;63189;51.240;9.964;2022-12-11T05:08:51;17.40;;;11.52;;
54909;SDS011;63189;51.240;9.964;2022-12-11T05:11:16;19.15;;;11.55;;
54909;SDS011;63189;51.240;9.964;2022-12-11T05:13:41;18.25;;;10.98;;
54909;SDS011;63189;51.240;9.964;2022-12-11T05:16:08;17.98;;;11.55;;
54909;SDS011;63189;51.240;9.964;2022-12-11T05:18:35;17.27;;;10.48;;
54909;SDS011;63189;51.240;9.964;2022-12-11T05:21:01;17.73;;;11.32;;
54909;SDS011;63189;51.240;9.964;2022-12-11T05:23:32;16.95;;;10.50;;
54909;SDS011;63189;51.240;9.964;2022-12-11T05:25:59;17.05;;;10.65;;
54909;SDS011;63189;51.240;9.964;2022-12-11T05:28:29;18.77;;;10.95;;
54909;SDS011;63189;51.240;9.964;2022-12-11T05:30:56;19.42;;;12.00;;
54909;SDS011;63189;51.240;9.964;2022-12-11T05:33:24;21.05;;;12.27;;
54909;SDS011;63189;51.240;9.964;2022-12-11T05:35:50;16.92;;;10.15;;
54909;SDS011;63189;51.240;9.964;2022-12-11T05:38:16;20.60;;;11.65;;
54909;SDS011;63189;51.240;9.964;2022-12-11T05:40:42;18.17;;;10.70;;
54909;SDS011;63189;51.240;9.964;2022-12-11T05:43:07;14.82;;;10.35;;
54909;SDS011;63189;51.240;9.964;2022-12-11T05:45:33;17.48;;;11.35;;
54909;SDS011;63189;51.240;9.964;2022-12-11T05:47:58;16.70;;;9.85;;
54909;SDS011;63189;51.240;9.964;2022-12-11T05:50:24;16.45;;;10.63;;
54909;SDS011;63189;51.240;9.964;2022-12-11T05:52:49;19.55;;;11.98;;
54909;SDS011;63189;51.240;9.964;2022-12-11T05:55:14;17.65;;;10.50;;
54909;SDS011;63189;51.240;9.964;2022-12-11T05:57:41;20.25;;;11.75;;
54909;SDS011;63189;51.240;9.964;2022-12-11T06:00:06;17.88;;;10.90;;
54909;SDS011;63189;51.240;9.964;2022-12-11T06:02:35;16.70;;;10.40;;
54909;SDS011;63189;51.240;9.964;2022-12-11T06:05:01;20.60;;;12.50;;
54909;SDS011;63189;51.240;9.964;2022-12-11T06:07:26;19.30;;;10.88;;
54909;SDS011;63189;51.240;9.964;2022-12-11T06:09:52;22.05;;;12.35;;
54909;SDS011;63189;51.240;9.964;2022-12-11T06:12:17;23.70;;;13.07;;
54909;SDS011;63189;51.240;9.964;2022-12-11T06:14:42;22.63;;;13.13;;
54909;SDS011;63189;51.240;9.964;2022-12-11T06:17:08;19.85;;;11.45;;
54909;SDS011;63189;51.240;9.964;2022-12-11T06:19:33;18.55;;;12.27;;
54909;SDS011;63189;51.240;9.964;2022-12-11T06:22:01;20.40;;;11.77;;
54909;SDS011;63189;51.240;9.964;2022-12-11T06:24:26;18.63;;;11.40;;
54909;SDS011;63189;51.240;9.964;2022-12-11T06:26:51;21.23;;;12.20;;
54909;SDS011;63189;51.240;9.964;2022-12-11T06:29:16;20.73;;;12.27;;
54909;SDS011;63189;51.240;9.964;2022-12-11T06:31:42;17.73;;;11.05;;
54909;SDS011;63189;51.240;9.964;2022-12-11T06:34:07;19.95;;;12.18;;
54909;SDS011;63189;51.240;9.964;2022-12-11T06:36:33;19.73;;;11.57;;
54909;SDS011;63189;51.240;9.964;2022-12-11T06:38:58;21.05;;;12.48;;
54909;SDS011;63189;51.240;9.964;2022-12-11T06:41:23;19.80;;;11.55;;
54909;SDS011;63189;51.240;9.964;2022-12-11T06:43:49;18.85;;;11.50;;
54909;SDS011;63189;51.240;9.964;2022-12-11T06:46:15;19.20;;;11.48;;
54909;SDS011;63189;51.240;9.964;2022-12-11T06:48:42;21.35;;;12.25;;
54909;SDS011;63189;51.240;9.964;2022-12-11T06:51:08;21.95;;;12.38;;
54909;SDS011;63189;51.240;9.964;2022-12-11T06:53:36;22.23;;;12.55;;
54909;SDS011;63189;51.240;9.964;2022-12-11T06:56:06;20.33;;;11.85;;
54909;SDS011;63189;51.240;9.964;2022-12-11T06:58:34;21.17;;;12.80;;
54909;SDS011;63189;51.240;9.964;2022-12-11T07:00:59;21.73;;;11.82;;
54909;SDS011;63189;51.240;9.964;2022-12-11T07:03:25;16.17;;;10.18;;
54909;SDS011;63189;51.240;9.964;2022-12-11T07:05:51;14.82;;;9.30;;
54909;SDS011;63189;51.240;9.964;2022-12-11T07:08:16;16.40;;;10.27;;
54909;SDS011;63189;51.240;9.964;2022-12-11T07:10:42;18.75;;;10.98;;
54909;SDS011;63189;51.240;9.964;2022-12-11T07:13:07;19.15;;;11.60;;
54909;SDS011;63189;51.240;9.964;2022-12-11T07:15:32;19.17;;;11.10;;
54909;SDS011;63189;51.240;9.964;2022-12-11T07:17:58;19.20;;;11.25;;
54909;SDS011;63189;51.240;9.964;2022-12-11T07:20:23;19.85;;;12.02;;
54909;SDS011;63189;51.240;9.964;2022-12-11T07:22:48;21.48;;;11.68;;
54909;SDS011;63189;51.240;9.964;2022-12-11T07:25:14;19.63;;;10.93;;
54909;SDS011;63189;51.240;9.964;2022-12-11T07:27:39;17.58;;;11.00;;
54909;SDS011;63189;51.240;9.964;2022-12-11T07:30:05;19.13;;;12.18;;
54909;SDS011;63189;51.240;9.964;2022-12-11T07:32:31;22.23;;;12.98;;
54909;SDS011;63189;51.240;9.964;2022-12-11T07:34:57;21.70;;;13.27;;
54909;SDS011;63189;51.240;9.964;2022-12-11T07:37:22;21.55;;;12.38;;
54909;SDS011;63189;51.240;9.964;2022-12-11T07:39:48;19.35;;;11.98;;
54909;SDS011;63189;51.240;9.964;2022-12-11T07:42:14;18.35;;;11.63;;
54909;SDS011;63189;51.240;9.964;2022-12-11T07:44:39;18.08;;;11.38;;
54909;SDS011;63189;51.240;9.964;2022-12-11T07:47:05;22.25;;;12.05;;
54909;SDS011;63189;51.240;9.964;2022-12-11T07:49:30;20.73;;;12.60;;
54909;SDS011;63189;51.240;9.964;2022-12-11T07:51:55;19.38;;;10.52;;
54909;SDS011;63189;51.240;9.964;2022-12-11T07:54:21;21.90;;;13.10;;
54909;SDS011;63189;51.240;9.964;2022-12-11T07:56:46;22.30;;;14.00;;
54909;SDS011;63189;51.240;9.964;2022-12-11T07:59:13;24.73;;;14.02;;
54909;SDS011;63189;51.240;9.964;2022-12-11T08:01:39;22.85;;;12.73;;
54909;SDS011;63189;51.240;9.964;2022-12-11T08:04:07;19.70;;;10.98;;
54909;SDS011;63189;51.240;9.964;2022-12-11T08:06:35;25.67;;;14.52;;
54909;SDS011;63189;51.240;9.964;2022-12-11T08:09:03;20.48;;;12.02;;
54909;SDS011;63189;51.240;9.964;2022-12-11T08:11:30;19.95;;;11.68;;
54909;SDS011;63189;51.240;9.964;2022-12-11T08:13:56;18.88;;;11.70;;
54909;SDS011;63189;51.240;9.964;2022-12-11T08:16:23;21.55;;;12.23;;
54909;SDS011;63189;51.240;9.964;2022-12-11T08:18:49;27.40;;;13.57;;
54909;SDS011;63189;51.240;9.964;2022-12-11T08:21:22;19.92;;;12.00;;
54909;SDS011;63189;51.240;9.964;2022-12-11T08:23:50;19.27;;;12.35;;
54909;SDS011;63189;51.240;9.964;2022-12-11T08:26:17;18.33;;;11.82;;
54909;SDS011;63189;51.240;9.964;2022-12-11T08:28:47;24.85;;;14.55;;
54909;SDS011;63189;51.240;9.964;2022-12-11T08:31:13;22.95;;;13.93;;
54909;SDS011;63189;51.240;9.964;2022-12-11T08:33:40;22.75;;;13.32;;
54909;SDS011;63189;51.240;9.964;2022-12-11T08:36:07;21.77;;;13.45;;
54909;SDS011;63189;51.240;9.964;2022-12-11T08:38:35;28.38;;;15.70;;
54909;SDS011;63189;51.240;9.964;2022-12-11T08:41:08;24.52;;;14.40;;
54909;SDS011;63189;51.240;9.964;2022-12-11T08:43:34;27.55;;;15.93;;
54909;SDS011;63189;51.240;9.964;2022-12-11T08:45:59;27.75;;;15.35;;
54909;SDS011;63189;51.240;9.964;2022-12-11T08:48:24;22.60;;;13.55;;
54909;SDS011;63189;51.240;9.964;2022-12-11T08:50:50;25.13;;;14.52;;
54909;SDS011;63189;51.240;9.964;2022-12-11T08:53:15;28.35;;;15.55;;
54909;SDS011;63189;51.240;9.964;2022-12-11T08:55:40;26.25;;;14.45;;
54909;SDS011;63189;51.240;9.964;2022-12-11T08:58:06;24.65;;;14.80;;
54909;SDS011;63189;51.240;9.964;2022-12-11T09:00:31;27.08;;;15.45;;
54909;SDS011;63189;51.240;9.964;2022-12-11T09:02:58;28.33;;;15.07;;
54909;SDS011;63189;51.240;9.964;2022-12-11T09:05:23;20.92;;;12.25;;
54909;SDS011;63189;51.240;9.964;2022-12-11T09:07:49;28.77;;;15.23;;
54909;SDS011;63189;51.240;9.964;2022-12-11T09:10:14;22.88;;;13.32;;
54909;SDS011;63189;51.240;9.964;2022-12-11T09:12:39;23.40;;;13.25;;
54909;SDS011;63189;51.240;9.964;2022-12-11T09:15:05;24.00;;;13.38;;
54909;SDS011;63189;51.240;9.964;2022-12-11T09:17:30;26.98;;;15.10;;
54909;SDS011;63189;51.240;9.964;2022-12-11T09:19:58;23.65;;;13.77;;
54909;SDS011;63189;51.240;9.964;2022-12-11T09:22:23;32.67;;;18.42;;
54909;SDS011;63189;51.240;9.964;2022-12-11T09:24:48;27.42;;;15.45;;
54909;SDS011;63189;51.240;9.964;2022-12-11T09:27:14;29.10;;;16.92;;
54909;SDS011;63189;51.240;9.964;2022-12-11T09:29:39;29.25;;;16.30;;
54909;SDS011;63189;51.240;9.964;2022-12-11T09:32:07;24.77;;;14.85;;
54909;SDS011;63189;51.240;9.964;2022-12-11T09:34:32;28.88;;;16.52;;
54909;SDS011;63189;51.240;9.964;2022-12-11T09:36:57;39.28;;;21.00;;
54909;SDS011;63189;51.240;9.964;2022-12-11T09:39:23;41.67;;;20.48;;
54909;SDS011;63189;51.240;9.964;2022-12-11T09:46:56;29.58;;;14.15;;
54909;SDS011;63189;51.240;9.964;2022-12-11T09:52:30;24.48;;;13.90;;
54909;SDS011;63189;51.240;9.964;2022-12-11T09:55:02;22.45;;;13.35;;
54909;SDS011;63189;51.240;9.964;2022-12-11T10:02:59;29.75;;;16.77;;
54909;SDS011;63189;51.240;9.964;2022-12-11T10:05:42;26.17;;;15.07;;
54909;SDS011;63189;51.240;9.964;2022-12-11T10:09:02;23.67;;;13.73;;
54909;SDS011;63189;51.240;9.964;2022-12-11T10:17:14;28.80;;;15.68;;
54909;SDS011;63189;51.240;9.964;2022-12-11T10:19:44;25.35;;;15.30;;
54909;SDS011;63189;51.240;9.964;2022-12-11T10:22:18;27.30;;;14.85;;
54909;SDS011;63189;51.240;9.964;2022-12-11T10:24:59;27.20;;;15.27;;
54909;SDS011;63189;51.240;9.964;2022-12-11T10:27:32;27.08;;;15.77;;
54909;SDS011;63189;51.240;9.964;2022-12-11T10:35:20;29.30;;;16.17;;
54909;SDS011;63189;51.240;9.964;2022-12-11T10:37:54;28.17;;;15.27;;
54909;SDS011;63189;51.240;9.964;2022-12-11T10:40:25;27.55;;;14.82;;
54909;SDS011;63189;51.240;9.964;2022-12-11T10:42:57;24.92;;;13.68;;
54909;SDS011;63189;51.240;9.964;2022-12-11T10:45:22;29.50;;;15.60;;
54909;SDS011;63189;51.240;9.964;2022-12-11T10:47:49;35.13;;;20.92;;
54909;SDS011;63189;51.240;9.964;2022-12-11T10:50:21;56.72;;;28.45;;
54909;SDS011;63189;51.240;9.964;2022-12-11T10:52:49;158.57;;;66.80;;
54909;SDS011;63189;51.240;9.964;2022-12-11T10:55:20;100.53;;;45.53;;
54909;SDS011;63189;51.240;9.964;2022-12-11T10:57:56;50.75;;;27.83;;
54909;SDS011;63189;51.240;9.964;2022-12-11T11:00:27;64.57;;;42.42;;
54909;SDS011;63189;51.240;9.964;2022-12-11T11:02:55;39.35;;;22.77;;
54909;SDS011;63189;51.240;9.964;2022-12-11T11:05:30;25.05;;;15.70;;
54909;SDS011;63189;51.240;9.964;2022-12-11T11:10:48;33.08;;;19.42;;
54909;SDS011;63189;51.240;9.964;2022-12-11T11:13:15;35.28;;;19.52;;
54909;SDS011;63189;51.240;9.964;2022-12-11T11:15:41;35.70;;;20.77;;
54909;SDS011;63189;51.240;9.964;2022-12-11T11:18:11;38.28;;;20.02;;
54909;SDS011;63189;51.240;9.964;2022-12-11T11:20:46;62.95;;;34.67;;
54909;SDS011;63189;51.240;9.964;2022-12-11T11:23:13;40.03;;;21.63;;
54909;SDS011;63189;51.240;9.964;2022-12-11T11:25:47;33.05;;;18.45;;
54909;SDS011;63189;51.240;9.964;2022-12-11T11:28:28;39.25;;;22.52;;
54909;SDS011;63189;51.240;9.964;2022-12-11T11:31:07;29.25;;;16.38;;
54909;SDS011;63189;51.240;9.964;2022-12-11T11:33:35;25.77;;;14.48;;
54909;SDS011;63189;51.240;9.964;2022-12-11T11:41:32;29.75;;;15.65;;
54909;SDS011;63189;51.240;9.964;2022-12-11T11:44:07;26.80;;;14.27;;
54909;SDS011;63189;51.240;9.964;2022-12-11T11:46:42;25.13;;;13.80;;
54909;SDS011;63189;51.240;9.964;2022-12-11T11:54:33;24.80;;;13.07;;
54909;SDS011;63189;51.240;9.964;2022-12-11T12:00:03;30.27;;;16.08;;
54909;SDS011;63189;51.240;9.964;2022-12-11T12:02:34;26.70;;;13.82;;
54909;SDS011;63189;51.240;9.964;2022-12-11T12:05:01;25.30;;;13.60;;
54909;SDS011;63189;51.240;9.964;2022-12-11T12:09:58;22.50;;;13.35;;
54909;SDS011;63189;51.240;9.964;2022-12-11T12:21:33;21.15;;;11.60;;
54909;SDS011;63189;51.240;9.964;2022-12-11T12:26:28;20.85;;;11.52;;
54909;SDS011;63189;51.240;9.964;2022-12-11T12:40:06;28.52;;;15.45;;
54909;SDS011;63189;51.240;9.964;2022-12-11T12:43:03;23.15;;;13.02;;
54909;SDS011;63189;51.240;9.964;2022-12-11T12:48:21;25.90;;;14.70;;
54909;SDS011;63189;51.240;9.964;2022-12-11T12:50:48;22.60;;;13.27;;
54909;SDS011;63189;51.240;9.964;2022-12-11T12:53:16;23.13;;;13.07;;
54909;SDS011;63189;51.240;9.964;2022-12-11T12:55:45;30.00;;;16.88;;
54909;SDS011;63189;51.240;9.964;2022-12-11T12:58:39;23.00;;;13.00;;
54909;SDS011;63189;51.240;9.964;2022-12-11T13:01:16;28.83;;;14.63;;
54909;SDS011;63189;51.240;9.964;2022-12-11T13:06:35;21.33;;;12.68;;
54909;SDS011;63189;51.240;9.964;2022-12-11T13:09:20;24.13;;;13.45;;
54909;SDS011;63189;51.240;9.964;2022-12-11T13:11:51;24.15;;;12.68;;
54909;SDS011;63189;51.240;9.964;2022-12-11T13:17:03;21.10;;;12.02;;
54909;SDS011;63189;51.240;9.964;2022-12-11T13:19:49;21.25;;;12.18;;
54909;SDS011;63189;51.240;9.964;2022-12-11T13:22:46;20.88;;;11.50;;
54909;SDS011;63189;51.240;9.964;2022-12-11T13:28:05;23.58;;;12.90;;
54909;SDS011;63189;51.240;9.964;2022-12-11T13:30:32;27.55;;;13.82;;
54909;SDS011;63189;51.240;9.964;2022-12-11T13:33:05;28.05;;;14.48;;
54909;SDS011;63189;51.240;9.964;2022-12-11T13:35:39;23.00;;;12.35;;
54909;SDS011;63189;51.240;9.964;2022-12-11T13:38:14;23.77;;;13.43;;
54909;SDS011;63189;51.240;9.964;2022-12-11T13:40:43;23.88;;;13.82;;
54909;SDS011;63189;51.240;9.964;2022-12-11T13:43:17;25.10;;;14.88;;
54909;SDS011;63189;51.240;9.964;2022-12-11T13:45:48;34.22;;;19.90;;
54909;SDS011;63189;51.240;9.964;2022-12-11T13:48:28;27.75;;;15.93;;
54909;SDS011;63189;51.240;9.964;2022-12-11T13:50:59;22.17;;;12.50;;
54909;SDS011;63189;51.240;9.964;2022-12-11T13:53:25;25.33;;;13.60;;
54909;SDS011;63189;51.240;9.964;2022-12-11T13:56:33;24.13;;;13.52;;
54909;SDS011;63189;51.240;9.964;2022-12-11T13:58:41;22.83;;;13.30;;
54909;SDS011;63189;51.240;9.964;2022-12-11T14:04:03;24.95;;;14.30;;
54909;SDS011;63189;51.240;9.964;2022-12-11T14:06:36;19.80;;;11.48;;
54909;SDS011;63189;51.240;9.964;2022-12-11T14:09:03;22.63;;;12.82;;
54909;SDS011;63189;51.240;9.964;2022-12-11T14:11:51;24.27;;;12.98;;
54909;SDS011;63189;51.240;9.964;2022-12-11T14:14:26;22.63;;;12.32;;
54909;SDS011;63189;51.240;9.964;2022-12-11T14:16:54;25.05;;;12.48;;
54909;SDS011;63189;51.240;9.964;2022-12-11T14:19:20;22.67;;;11.43;;
54909;SDS011;63189;51.240;9.964;2022-12-11T14:21:56;21.63;;;12.27;;
54909;SDS011;63189;51.240;9.964;2022-12-11T14:24:28;22.83;;;13.13;;
54909;SDS011;63189;51.240;9.964;2022-12-11T14:26:55;57.90;;;27.58;;
54909;SDS011;63189;51.240;9.964;2022-12-11T14:29:29;29.02;;;15.93;;
54909;SDS011;63189;51.240;9.964;2022-12-11T14:31:58;26.02;;;13.50;;
54909;SDS011;63189;51.240;9.964;2022-12-11T14:34:41;25.13;;;13.65;;
54909;SDS011;63189;51.240;9.964;2022-12-11T14:37:09;23.60;;;13.52;;
54909;SDS011;63189;51.240;9.964;2022-12-11T14:39:55;22.17;;;12.07;;
54909;SDS011;63189;51.240;9.964;2022-12-11T14:42:25;20.95;;;12.02;;
54909;SDS011;63189;51.240;9.964;2022-12-11T14:47:57;22.88;;;12.85;;
54909;SDS011;63189;51.240;9.964;2022-12-11T14:50:41;23.73;;;13.20;;
54909;SDS011;63189;51.240;9.964;2022-12-11T14:53:13;26.20;;;13.90;;
54909;SDS011;63189;51.240;9.964;2022-12-11T14:55:43;23.05;;;12.23;;
54909;SDS011;63189;51.240;9.964;2022-12-11T14:58:18;23.42;;;13.15;;
54909;SDS011;63189;51.240;9.964;2022-12-11T15:00:59;23.30;;;13.10;;
54909;SDS011;63189;51.240;9.964;2022-12-11T15:03:33;26.60;;;14.55;;
54909;SDS011;63189;51.240;9.964;2022-12-11T15:06:01;24.40;;;12.77;;
54909;SDS011;63189;51.240;9.964;2022-12-11T15:08:32;19.85;;;10.95;;
54909;SDS011;63189;51.240;9.964;2022-12-11T15:11:12;24.58;;;13.15;;
54909;SDS011;63189;51.240;9.964;2022-12-11T15:13:51;20.42;;;11.48;;
54909;SDS011;63189;51.240;9.964;2022-12-11T15:16:20;25.25;;;13.85;;
54909;SDS011;63189;51.240;9.964;2022-12-11T15:18:47;22.67;;;12.20;;
54909;SDS011;63189;51.240;9.964;2022-12-11T15:21:15;24.15;;;12.88;;
54909;SDS011;63189;51.240;9.964;2022-12-11T15:26:17;21.83;;;12.20;;
54909;SDS011;63189;51.240;9.964;2022-12-11T15:28:44;21.45;;;12.20;;
54909;SDS011;63189;51.240;9.964;2022-12-11T15:31:27;21.15;;;11.27;;
54909;SDS011;63189;51.240;9.964;2022-12-11T15:33:56;17.67;;;10.48;;
54909;SDS011;63189;51.240;9.964;2022-12-11T15:36:24;19.30;;;10.75;;
54909;SDS011;63189;51.240;9.964;2022-12-11T15:38:49;21.98;;;11.95;;
54909;SDS011;63189;51.240;9.964;2022-12-11T15:41:16;22.77;;;12.48;;
54909;SDS011;63189;51.240;9.964;2022-12-11T15:43:46;21.35;;;12.32;;
54909;SDS011;63189;51.240;9.964;2022-12-11T15:46:12;19.63;;;10.60;;
54909;SDS011;63189;51.240;9.964;2022-12-11T15:48:37;20.55;;;11.82;;
54909;SDS011;63189;51.240;9.964;2022-12-11T15:51:03;21.30;;;11.90;;
54909;SDS011;63189;51.240;9.964;2022-12-11T15:53:28;22.15;;;11.60;;
54909;SDS011;63189;51.240;9.964;2022-12-11T15:55:53;19.45;;;11.35;;
54909;SDS011;63189;51.240;9.964;2022-12-11T15:58:21;23.27;;;13.20;;
54909;SDS011;63189;51.240;9.964;2022-12-11T16:00:48;23.35;;;13.60;;
54909;SDS011;63189;51.240;9.964;2022-12-11T16:03:15;24.48;;;13.48;;
54909;SDS011;63189;51.240;9.964;2022-12-11T16:05:43;23.25;;;13.45;;
54909;SDS011;63189;51.240;9.964;2022-12-11T16:08:13;32.10;;;17.33;;
54909;SDS011;63189;51.240;9.964;2022-12-11T16:10:41;33.42;;;17.10;;
54909;SDS011;63189;51.240;9.964;2022-12-11T16:13:07;28.33;;;15.52;;
54909;SDS011;63189;51.240;9.964;2022-12-11T16:15:37;29.83;;;16.33;;
54909;SDS011;63189;51.240;9.964;2022-12-11T16:18:11;28.73;;;15.85;;